Ana Sayfa
METAR-TAF:

METAR-TAF

Havaalanları :

Mehrabad Havalimanı

Tahran, İran

Enlem: 35-41N, Boylam: 051-21E, yükseklik: 1204 m

Güncel hava durumu gözlemi

Rapor saat 21:30 UTC de 14 dakika önce yapıldı.
Rüzgar kuzeydoğudan 4 kt
Sıcaklık 33°C
Nem 12%
Basınç 1005 hPa
Görüş mesafesi 10 km veya daha fazla
10000 ft yükseklikte parçalı çok bulutlu

METAR: OIII 222130Z 04004KT 9999 BKN100 33/00 Q1005 A2969

Saat: 02:14 (21:44 UTC)

Tahmin

Rapor saat 17:30 UTC de 4 saat ve 14 dakika önce yapıldı.
Ayın 22'si saat 18 UTC'den ayın 23'si saat 24 UTC'ye kadar geçerli Tahmin
Rüzgar doğudan 8 kt
Görüş mesafesi: 8000 m
9000 ft yükseklikte parçalı bulutlu
Geçici
ayın 23'si saat 07 UTC'den ayın 23'si saat 15 UTC'ye kadar
Rüzgar doğu/güneydoğudan 17 kt

TAF: OIII 221730Z 2218/2324 08004MPS 8000 SCT090 TEMPO 2307/2315 12009MPS

4.000'den fazla havaalanı için hava durumu gözlemleri ve tahminleri (METAR ve TAF raporları).

Kullanılabilir istasyonlar harita üzerinde sarı ve kırmızı noktalarla gösterilir.

İstasyonun adını görmek için fareyi noktanın üzerinde gezdirin.

Sonrasında hava gözlem ve tahminlerini görmek için tıklayın.

Haritayı değiştirmek için: yaklaştırmak için siyah artı işaretli yeşil düğmeye ve uzaklaştırmak için de eksi işaretli düğmeye hızla tıklayın; bitişik haritalar için yeşil okları kullanın.


METAR-TAF: